Time;durP1;ratioP1;P1;durP2;ratioP2;P2;SDS_P1;SDS_P2;PMS_P1;PMS_P2;Temp;Humidity;BMP_temperature;BMP_pressure;BME280_temperature;BME280_humidity;BME280_pressure;Samples;Min_cycle;Max_cycle;Signal;HPM_P1;HPM_P2
2022/05/28 00:00:24;;;;;;;2.95;1.65;;;;;;;9.79;88.46;98879.97;1734327;81;21464;-84
2022/05/28 00:02:51;;;;;;;2.45;1.52;;;;;;;9.80;88.40;98902.68;1747881;82;21008;-84
2022/05/28 00:05:17;;;;;;;3.15;1.95;;;;;;;9.79;88.54;98919.37;1747673;82;21158;-84
2022/05/28 00:07:44;;;;;;;1.80;1.70;;;;;;;9.77;88.66;98913.34;1748105;82;21796;-85
2022/05/28 00:10:13;;;;;;;1.40;1.30;;;;;;;9.75;88.76;98912.09;1747602;82;21088;-84
2022/05/28 00:12:41;;;;;;;1.30;1.30;;;;;;;9.73;88.55;98902.08;1747743;82;21550;-85
2022/05/28 00:15:10;;;;;;;5.72;1.50;;;;;;;9.73;88.61;98905.17;1747942;82;21051;-84
2022/05/28 00:17:36;;;;;;;4.40;1.77;;;;;;;9.74;88.54;98881.94;1747872;82;22048;-84
2022/05/28 00:20:04;;;;;;;1.60;1.50;;;;;;;9.73;88.41;98873.17;1747771;82;22259;-85
2022/05/28 00:22:31;;;;;;;8.13;2.00;;;;;;;9.74;88.39;98866.17;1747687;82;21459;-83
2022/05/28 00:24:57;;;;;;;1.75;1.62;;;;;;;9.72;88.36;98841.28;1747969;82;21597;-84
2022/05/28 00:27:24;;;;;;;1.70;1.60;;;;;;;9.73;88.18;98825.05;1747537;82;21484;-82
2022/05/28 00:29:51;;;;;;;2.67;1.60;;;;;;;9.74;88.28;98837.28;1747789;82;21019;-84
2022/05/28 00:32:18;;;;;;;1.77;1.50;;;;;;;9.72;88.21;98866.70;1747572;82;22171;-83
2022/05/28 00:34:44;;;;;;;1.57;1.40;;;;;;;9.69;88.12;98841.41;1747796;82;21055;-84
2022/05/28 00:37:11;;;;;;;2.10;1.70;;;;;;;9.69;88.11;98847.12;1747994;82;21063;-83
2022/05/28 00:39:37;;;;;;;1.90;1.80;;;;;;;9.67;88.24;98837.52;1747745;82;21001;-82
2022/05/28 00:42:04;;;;;;;2.15;1.65;;;;;;;9.66;88.21;98864.70;1747693;82;21064;-83
2022/05/28 00:44:30;;;;;;;1.77;1.47;;;;;;;9.65;88.26;98872.20;1748031;82;21103;-83
2022/05/28 00:46:59;;;;;;;5.20;1.70;;;;;;;9.66;88.39;98873.05;1747727;82;21087;-83
2022/05/28 00:49:29;;;;;;;2.00;1.90;;;;;;;9.65;88.47;98874.83;1748071;82;21067;-84
2022/05/28 00:51:59;;;;;;;4.00;1.72;;;;;;;9.62;88.58;98861.81;1720078;82;21047;-83
2022/05/28 00:54:29;;;;;;;2.58;1.70;;;;;;;9.63;88.66;98863.53;1744910;82;21555;-83
2022/05/28 00:56:56;;;;;;;2.08;1.75;;;;;;;9.63;88.70;98854.34;1747659;82;21123;-84
2022/05/28 00:59:23;;;;;;;1.85;1.75;;;;;;;9.62;88.76;98865.75;1747606;82;21027;-80
2022/05/28 01:01:49;;;;;;;1.82;1.72;;;;;;;9.61;88.67;98871.91;1741186;81;21059;-83
2022/05/28 01:04:36;;;;;;;1.70;1.57;;;;;;;9.60;88.75;98849.21;1733554;82;21031;-84
2022/05/28 01:07:26;;;;;;;1.60;1.50;;;;;;;9.60;88.72;98838.70;1733641;82;21031;-84
2022/05/28 01:10:36;;;;;;;4.25;1.60;;;;;;;9.59;88.68;98855.37;1733694;81;21975;-85
2022/05/28 01:13:22;;;;;;;3.35;1.82;;;;;;;9.58;88.74;98874.69;1733797;82;21496;-83
2022/05/28 01:15:56;;;;;;;2.95;1.80;;;;;;;9.56;88.81;98871.25;1713873;82;21054;-83
2022/05/28 01:18:31;;;;;;;1.60;1.50;;;;;;;9.56;88.87;98871.25;1733203;82;21119;-84
2022/05/28 01:21:06;;;;;;;1.82;1.72;;;;;;;9.54;88.76;98862.59;1733635;81;21115;-84
2022/05/28 01:23:39;;;;;;;;;;;;;;;9.55;88.83;98884.00;1736010;82;21555;-82
2022/05/28 01:26:18;;;;;;;3.75;1.90;;;;;;;9.55;88.80;98873.94;1733809;81;20579;-83
2022/05/28 01:29:01;;;;;;;2.10;1.82;;;;;;;9.53;88.85;98874.03;1714654;82;21005;-84
2022/05/28 01:31:28;;;;;;;3.67;1.80;;;;;;;9.54;88.83;98874.87;1733816;82;22244;-84
2022/05/28 01:33:55;;;;;;;2.75;2.00;;;;;;;9.52;89.01;98859.17;1733708;82;21068;-85
2022/05/28 01:36:22;;;;;;;2.10;2.00;;;;;;;9.53;89.01;98849.52;1733709;82;21871;-84
2022/05/28 01:38:49;;;;;;;2.90;2.15;;;;;;;9.54;88.93;98849.92;1712931;82;21164;-83
2022/05/28 01:41:15;;;;;;;7.42;2.08;;;;;;;9.54;88.86;98845.52;1733824;82;21001;-84
2022/05/28 01:43:45;;;;;;;1.85;1.75;;;;;;;9.54;88.88;98859.95;1733919;82;21056;-85
2022/05/28 01:46:13;;;;;;;2.15;1.95;;;;;;;9.52;89.01;98867.05;1734274;82;21091;-84
2022/05/28 01:48:40;;;;;;;2.50;2.30;;;;;;;9.53;89.03;98881.91;1735118;82;21535;-84
2022/05/28 01:51:06;;;;;;;3.20;1.67;;;;;;;9.53;89.11;98874.03;1733608;82;21476;-83
2022/05/28 01:56:18;;;;;;;2.02;1.92;;;;;;;9.54;89.14;98862.59;1664400;82;21488;-83
2022/05/28 01:58:45;;;;;;;2.50;1.87;;;;;;;9.55;89.11;98884.44;1733862;82;20981;-85
2022/05/28 02:01:11;;;;;;;2.00;1.90;;;;;;;9.55;89.00;98890.56;1734741;82;22136;-86
2022/05/28 02:03:41;;;;;;;2.22;2.10;;;;;;;9.55;89.09;98872.19;1748025;82;21550;-85
2022/05/28 02:06:08;;;;;;;4.65;2.15;;;;;;;9.55;88.97;98855.11;1747543;82;21036;-85
2022/05/28 02:08:37;;;;;;;3.95;1.90;;;;;;;9.54;88.85;98852.08;1747770;82;21115;-84
2022/05/28 02:11:17;;;;;;;2.12;1.72;;;;;;;9.56;88.96;98848.92;1747888;82;21103;-84
2022/05/28 02:14:00;;;;;;;2.70;2.08;;;;;;;9.59;88.85;98845.33;1747909;82;21140;-86
2022/05/28 02:17:01;;;;;;;2.22;2.02;;;;;;;9.59;88.82;98842.23;1748663;81;21166;-83
2022/05/28 02:19:56;;;;;;;2.85;2.05;;;;;;;9.58;88.83;98843.61;1748211;82;21110;-85
2022/05/28 02:22:58;;;;;;;2.33;2.12;;;;;;;9.56;88.61;98838.89;1748420;82;20976;-84
2022/05/28 02:25:42;;;;;;;2.20;2.10;;;;;;;9.56;88.58;98844.98;1748136;82;21558;-84
2022/05/28 02:28:10;;;;;;;;;;;;;;;9.57;88.61;98841.92;1747822;82;21157;-84
2022/05/28 02:30:48;;;;;;;2.50;2.20;;;;;;;9.56;88.66;98846.77;1748184;82;20249;-86
2022/05/28 02:33:15;;;;;;;4.75;2.10;;;;;;;9.56;88.80;98869.09;1748239;82;21000;-84
2022/05/28 02:35:44;;;;;;;3.50;2.27;;;;;;;9.54;88.82;98873.09;1747856;82;20980;-85
2022/05/28 02:38:13;;;;;;;4.55;2.12;;;;;;;9.56;88.82;98884.38;1748164;82;21501;-85
2022/05/28 02:40:41;;;;;;;4.03;2.37;;;;;;;9.55;88.87;98887.94;1748033;82;21548;-85
2022/05/28 02:43:07;;;;;;;2.60;2.40;;;;;;;9.56;88.93;98873.03;1747898;82;21036;-85
2022/05/28 02:45:35;;;;;;;2.30;2.05;;;;;;;9.57;88.89;98866.41;1747727;82;21549;-85
2022/05/28 02:48:01;;;;;;;2.80;2.50;;;;;;;9.60;88.92;98870.66;1747744;82;21507;-84
2022/05/28 02:50:29;;;;;;;5.20;2.40;;;;;;;9.60;88.71;98867.59;1747972;82;21114;-86
2022/05/28 02:52:56;;;;;;;3.37;2.10;;;;;;;9.59;88.69;98867.19;1747775;82;22253;-82
2022/05/28 02:55:23;;;;;;;3.15;2.27;;;;;;;9.60;88.72;98871.53;1747918;82;21553;-85
2022/05/28 02:57:51;;;;;;;4.17;2.25;;;;;;;9.61;88.69;98867.13;1747773;82;21012;-85
2022/05/28 03:00:18;;;;;;;2.65;2.45;;;;;;;9.61;88.73;98862.72;1746743;82;20979;-83
2022/05/28 03:02:45;;;;;;;5.28;3.00;;;;;;;9.63;88.78;98880.61;1744499;82;20997;-84
2022/05/28 03:05:13;;;;;;;2.77;1.98;;;;;;;9.64;88.47;98870.48;1742162;82;21268;-86
2022/05/28 03:07:40;;;;;;;5.55;2.45;;;;;;;9.66;88.54;98869.10;1742265;82;21138;-84
2022/05/28 03:10:08;;;;;;;2.30;2.20;;;;;;;9.65;88.48;98863.01;1742341;81;21075;-83
2022/05/28 03:12:35;;;;;;;2.30;2.17;;;;;;;9.67;88.49;98872.98;1742165;81;21052;-84
2022/05/28 03:15:02;;;;;;;2.45;2.12;;;;;;;9.70;88.46;98868.08;1742215;82;21043;-84
2022/05/28 03:17:29;;;;;;;2.30;2.10;;;;;;;9.72;88.41;98878.05;1742285;82;21104;-84
2022/05/28 03:19:55;;;;;;;2.55;2.27;;;;;;;9.74;88.44;98895.07;1742606;81;21123;-85
2022/05/28 03:22:22;;;;;;;4.80;2.40;;;;;;;9.74;88.25;98888.03;1742286;81;21064;-86
2022/05/28 03:24:48;;;;;;;4.22;2.45;;;;;;;9.75;88.01;98889.76;1742507;82;21629;-84
2022/05/28 03:27:14;;;;;;;3.15;2.42;;;;;;;9.77;87.93;98898.89;1742112;82;21053;-85
2022/05/28 03:29:42;;;;;;;2.52;2.40;;;;;;;9.77;87.94;98893.17;1742391;81;21032;-84
2022/05/28 03:32:09;;;;;;;2.37;2.22;;;;;;;9.78;87.76;98895.33;1742274;82;21634;-83
2022/05/28 03:34:35;;;;;;;2.60;2.40;;;;;;;9.78;87.51;98897.95;1742174;81;21931;-85
2022/05/28 03:37:02;;;;;;;3.20;2.70;;;;;;;9.77;87.35;98903.67;1742392;82;21708;-85
2022/05/28 03:39:29;;;;;;;2.40;2.20;;;;;;;9.77;87.34;98897.11;1742197;82;21032;-86
2022/05/28 03:41:55;;;;;;;5.08;2.60;;;;;;;9.77;87.36;98894.95;1742336;82;21140;-84
2022/05/28 03:44:22;;;;;;;5.83;2.50;;;;;;;9.76;87.35;98903.27;1742183;81;21040;-86
2022/05/28 03:46:48;;;;;;;3.05;2.60;;;;;;;9.76;87.10;98901.11;1742268;82;21051;-84
2022/05/28 03:49:28;;;;;;;3.72;2.47;;;;;;;9.77;87.05;98904.14;1742135;82;21045;-85
2022/05/28 03:51:55;;;;;;;3.33;2.30;;;;;;;9.77;87.11;98901.52;1742178;82;21009;-85
2022/05/28 03:54:22;;;;;;;2.60;2.40;;;;;;;9.79;87.06;98908.88;1742547;82;21120;-84
2022/05/28 03:56:50;;;;;;;5.95;2.35;;;;;;;9.79;87.03;98904.46;1742024;82;21048;-85
2022/05/28 03:59:16;;;;;;;2.87;2.33;;;;;;;9.80;86.80;98903.55;1731678;82;21130;-85
2022/05/28 04:01:43;;;;;;;5.37;2.60;;;;;;;9.82;86.90;98892.52;1742188;81;21063;-84
2022/05/28 04:04:10;;;;;;;2.70;2.50;;;;;;;9.84;86.61;98905.13;1742391;82;20969;-85
2022/05/28 04:06:37;;;;;;;2.85;2.35;;;;;;;9.89;86.75;98908.03;1742229;82;21529;-87
2022/05/28 04:09:05;;;;;;;6.05;2.83;;;;;;;9.93;86.63;98910.45;1742250;81;21001;-84
2022/05/28 04:11:33;;;;;;;3.95;2.42;;;;;;;9.95;86.25;98899.44;1742157;82;21635;-86
2022/05/28 04:13:59;;;;;;;2.80;2.20;;;;;;;9.96;85.95;98905.54;1742115;82;21063;-84
2022/05/28 04:16:26;;;;;;;3.10;2.40;;;;;;;9.95;85.95;98909.08;1742278;81;21099;-85
2022/05/28 04:18:53;;;;;;;5.00;2.60;;;;;;;9.94;85.65;98912.64;1742169;82;21097;-84
2022/05/28 04:21:19;;;;;;;3.02;2.60;;;;;;;9.94;85.52;98914.80;1742447;81;21047;-85
2022/05/28 04:23:45;;;;;;;4.47;2.62;;;;;;;9.97;85.41;98913.36;1742026;81;21040;-86
2022/05/28 04:26:12;;;;;;;4.00;2.77;;;;;;;9.99;85.52;98914.14;1742233;82;21001;-86
2022/05/28 04:28:39;;;;;;;4.80;3.10;;;;;;;10.03;85.44;98914.40;1741993;82;21079;-85
2022/05/28 04:31:06;;;;;;;2.90;2.50;;;;;;;10.10;85.55;98916.31;1742236;82;21646;-84
2022/05/28 04:33:33;;;;;;;3.65;2.58;;;;;;;10.15;85.28;98914.34;1742469;82;21047;-86
2022/05/28 04:36:00;;;;;;;4.37;2.72;;;;;;;10.18;84.66;98917.31;1742240;82;21070;-86
2022/05/28 04:38:27;;;;;;;3.30;2.70;;;;;;;10.17;84.39;98924.79;1742342;81;21126;-87
2022/05/28 04:40:54;;;;;;;2.67;2.47;;;;;;;10.19;84.69;98926.45;1742078;82;21170;-85
2022/05/28 04:43:21;;;;;;;4.20;2.50;;;;;;;10.21;84.42;98929.86;1742062;82;21787;-85
2022/05/28 04:45:49;;;;;;;5.17;2.85;;;;;;;10.25;84.76;98927.95;1742182;82;20993;-85
2022/05/28 04:48:15;;;;;;;4.10;2.83;;;;;;;10.28;84.84;98923.88;1742011;81;21017;-83
2022/05/28 04:50:41;;;;;;;3.17;2.77;;;;;;;10.32;84.41;98928.14;1742233;82;21056;-84
2022/05/28 04:53:08;;;;;;;2.80;2.60;;;;;;;10.38;84.06;98917.80;1742498;82;21051;-85
2022/05/28 04:55:37;;;;;;;4.17;2.62;;;;;;;10.40;84.11;98919.43;1741442;82;21783;-86
2022/05/28 04:58:04;;;;;;;4.33;3.02;;;;;;;10.44;84.07;98918.86;1743324;82;21557;-83
2022/05/28 05:00:31;;;;;;;4.08;2.83;;;;;;;10.49;84.32;98926.09;1747464;82;21006;-84
2022/05/28 05:02:58;;;;;;;3.70;2.87;;;;;;;10.56;83.87;98922.26;1749571;81;21046;-85
2022/05/28 05:05:25;;;;;;;5.03;3.12;;;;;;;10.60;83.40;98919.03;1752974;81;21055;-86
2022/05/28 05:07:51;;;;;;;5.47;3.22;;;;;;;10.59;82.89;98923.45;1752952;81;21138;-86
2022/05/28 05:10:18;;;;;;;3.35;3.05;;;;;;;10.59;83.41;98929.14;1753469;81;21126;-85
2022/05/28 05:12:45;;;;;;;5.42;3.20;;;;;;;10.59;83.03;98937.91;1752801;81;21042;-86
2022/05/28 05:15:12;;;;;;;4.78;3.10;;;;;;;10.57;82.52;98944.15;1754177;81;21074;-83
2022/05/28 05:17:42;;;;;;;6.85;4.45;;;;;;;10.55;82.67;98940.73;1753374;81;21046;-84
2022/05/28 05:20:10;;;;;;;4.08;3.20;;;;;;;10.56;82.85;98931.47;1753215;81;21136;-84
2022/05/28 05:22:37;;;;;;;3.45;2.83;;;;;;;10.60;82.35;98933.02;1753096;81;21129;-86
2022/05/28 05:25:04;;;;;;;6.17;3.83;;;;;;;10.66;82.37;98928.41;1753068;81;21093;-85
2022/05/28 05:27:31;;;;;;;6.72;3.50;;;;;;;10.72;82.90;98926.36;1752844;81;20980;-83
2022/05/28 05:29:58;;;;;;;3.90;3.45;;;;;;;10.82;82.45;98925.50;1753148;81;21026;-83
2022/05/28 05:32:25;;;;;;;4.80;3.30;;;;;;;10.90;81.37;98947.53;1753049;81;21556;-85
2022/05/28 05:34:52;;;;;;;6.65;3.45;;;;;;;10.93;80.88;98928.98;1753015;81;21065;-86
2022/05/28 05:37:19;;;;;;;4.60;3.67;;;;;;;10.98;80.58;98930.94;1752928;81;21137;-86
2022/05/28 05:39:46;;;;;;;3.60;3.30;;;;;;;11.02;81.25;98937.75;1752985;81;22052;-84
2022/05/28 05:42:12;;;;;;;4.87;3.20;;;;;;;11.12;81.32;98938.19;1753179;81;21050;-84
2022/05/28 05:44:39;;;;;;;6.65;3.95;;;;;;;11.20;80.27;98943.11;1753086;81;21133;-87
2022/05/28 05:47:07;;;;;;;4.97;3.40;;;;;;;11.24;80.83;98938.08;1752951;81;21592;-83
2022/05/28 05:49:33;;;;;;;7.22;3.35;;;;;;;11.30;80.90;98945.23;1753142;81;21090;-85
2022/05/28 05:52:00;;;;;;;6.30;3.17;;;;;;;11.36;80.78;98940.13;1752841;81;21117;-89
2022/05/28 05:54:27;;;;;;;3.20;3.00;;;;;;;11.42;80.34;98956.98;1725751;81;21138;-89
2022/05/28 05:56:54;;;;;;;4.10;3.27;;;;;;;11.45;79.63;98956.84;1753322;81;21665;-90
2022/05/28 05:59:21;;;;;;;4.97;3.00;;;;;;;11.48;79.29;98952.75;1752901;81;20984;-88
2022/05/28 06:01:47;;;;;;;4.53;2.85;;;;;;;11.56;79.07;98955.47;1753287;81;21109;-87
2022/05/28 06:04:14;;;;;;;3.62;3.12;;;;;;;11.60;77.93;98945.16;1748630;81;20987;-87
2022/05/28 06:06:41;;;;;;;3.58;3.05;;;;;;;11.63;78.27;98942.39;1747469;82;21082;-85
2022/05/28 06:09:08;;;;;;;3.12;2.83;;;;;;;11.67;78.55;98942.17;1747440;82;21079;-85
2022/05/28 06:11:35;;;;;;;6.87;2.70;;;;;;;11.71;77.55;98947.67;1747347;82;20979;-84
2022/05/28 06:14:01;;;;;;;5.78;3.15;;;;;;;11.73;77.55;98949.39;1747729;82;21051;-85
2022/05/28 06:16:28;;;;;;;7.12;3.05;;;;;;;11.72;77.12;98957.77;1747595;82;21003;-85
2022/05/28 06:18:56;;;;;;;3.90;3.05;;;;;;;11.67;76.86;98955.34;1748004;82;21494;-85
2022/05/28 06:21:24;;;;;;;3.20;2.77;;;;;;;11.64;76.59;98963.87;1747528;82;21219;-82
2022/05/28 06:23:50;;;;;;;4.22;3.00;;;;;;;11.62;76.73;98968.36;1747371;82;21098;-85
2022/05/28 06:26:17;;;;;;;6.00;3.33;;;;;;;11.60;76.34;98951.75;1747449;82;21053;-87
2022/05/28 06:28:43;;;;;;;6.92;3.47;;;;;;;11.60;77.14;98953.06;1747407;82;21474;-87
2022/05/28 06:31:11;;;;;;;6.00;2.83;;;;;;;11.63;77.76;98954.24;1747674;82;21541;-86
2022/05/28 06:33:38;;;;;;;5.28;3.02;;;;;;;11.68;77.66;98943.89;1747498;82;21128;-87
2022/05/28 06:36:08;;;;;;;5.47;3.00;;;;;;;11.75;77.77;98940.50;1747572;82;21039;-86
2022/05/28 06:38:35;;;;;;;11.83;3.40;;;;;;;11.86;77.51;98947.39;1747410;82;21505;-88
2022/05/28 06:41:03;;;;;;;4.50;3.27;;;;;;;11.95;77.36;98942.63;1747741;82;21505;-85
2022/05/28 06:43:29;;;;;;;3.10;2.80;;;;;;;12.06;76.71;98942.95;1747171;82;21648;-85
2022/05/28 06:45:56;;;;;;;4.80;3.35;;;;;;;12.13;75.55;98938.23;1747601;82;22617;-86
2022/05/28 06:48:23;;;;;;;3.65;2.92;;;;;;;12.16;75.06;98945.52;1747368;82;21079;-86
2022/05/28 06:51:01;;;;;;;4.75;3.15;;;;;;;12.23;75.71;98944.27;1747882;82;21066;-86
2022/05/28 06:53:40;;;;;;;6.37;2.65;;;;;;;12.37;74.85;98941.40;1747612;82;21568;-86
2022/05/28 06:56:08;;;;;;;3.00;2.67;;;;;;;12.53;74.16;98937.52;1746563;82;21519;-87
2022/05/28 06:58:35;;;;;;;7.03;3.05;;;;;;;12.68;74.72;98939.83;1747794;82;21115;-85
2022/05/28 07:01:03;;;;;;;5.92;3.20;;;;;;;12.81;74.00;98944.85;1747575;82;21055;-86
2022/05/28 07:03:31;;;;;;;5.45;3.05;;;;;;;12.92;73.48;98947.75;1745583;81;21088;-86
2022/05/28 07:05:57;;;;;;;4.03;2.40;;;;;;;13.00;73.35;98939.43;1747500;82;21082;-87
2022/05/28 07:08:26;;;;;;;7.67;3.00;;;;;;;13.08;73.92;98945.16;1747373;82;21510;-85
2022/05/28 07:10:55;;;;;;;5.28;2.80;;;;;;;13.17;72.60;98939.36;1747823;82;21738;-85
2022/05/28 07:13:22;;;;;;;4.08;2.50;;;;;;;13.21;71.50;98955.89;1747385;82;21058;-85
2022/05/28 07:15:49;;;;;;;3.12;2.35;;;;;;;13.19;70.43;98941.92;1747681;82;21079;-86
2022/05/28 07:18:16;;;;;;;4.80;2.55;;;;;;;13.24;71.38;98939.03;1747460;82;21039;-87
2022/05/28 07:20:44;;;;;;;3.87;2.45;;;;;;;13.41;70.77;98948.70;1747449;82;20986;-85
2022/05/28 07:23:21;;;;;;;3.67;2.45;;;;;;;13.59;68.72;98948.16;1747411;82;22955;-85
2022/05/28 07:25:49;;;;;;;4.92;2.30;;;;;;;13.66;65.64;98949.03;1747468;82;21078;-84
2022/05/28 07:28:24;;;;;;;5.25;2.02;;;;;;;13.68;64.43;98955.55;1747833;82;21074;-87
2022/05/28 07:31:10;;;;;;;5.42;2.08;;;;;;;13.73;64.02;98957.02;1747756;82;21043;-85
2022/05/28 07:33:40;;;;;;;2.45;1.90;;;;;;;13.78;63.64;98953.25;1744739;82;21035;-85
2022/05/28 07:36:09;;;;;;;3.33;2.10;;;;;;;13.85;64.38;98946.66;1747092;82;21152;-87
2022/05/28 07:38:37;;;;;;;10.30;2.08;;;;;;;13.92;63.44;98952.00;1747324;82;21054;-86
2022/05/28 07:41:08;;;;;;;6.33;2.10;;;;;;;13.98;63.68;98950.31;1747440;82;22038;-84
2022/05/28 07:43:35;;;;;;;4.30;1.90;;;;;;;14.07;64.06;98943.18;1747688;82;21031;-84
2022/05/28 07:46:03;;;;;;;5.75;1.80;;;;;;;14.10;60.06;98937.71;1747554;82;21030;-81
2022/05/28 07:48:29;;;;;;;2.92;1.80;;;;;;;14.10;61.82;98943.45;1747560;82;21098;-85
2022/05/28 07:50:56;;;;;;;10.25;2.08;;;;;;;14.08;62.87;98940.05;1747682;82;21066;-86
2022/05/28 07:53:22;;;;;;;4.92;2.27;;;;;;;14.06;62.41;98941.46;1747213;82;21011;-84
2022/05/28 07:55:49;;;;;;;9.98;1.87;;;;;;;14.06;62.11;98941.46;1747481;82;21074;-87
2022/05/28 07:58:18;;;;;;;3.60;1.90;;;;;;;14.11;59.95;98948.66;1747736;82;21043;-85
2022/05/28 08:00:47;;;;;;;4.85;2.08;;;;;;;14.10;61.30;98940.36;1747317;82;21487;-85
2022/05/28 08:03:14;;;;;;;3.62;2.00;;;;;;;14.13;62.23;98946.77;1747645;81;21135;-84
2022/05/28 08:05:45;;;;;;;4.00;1.67;;;;;;;14.17;62.00;98950.56;1747395;82;21055;-86
2022/05/28 08:08:12;;;;;;;6.00;2.17;;;;;;;14.29;63.69;98958.64;1747357;82;20984;-83
2022/05/28 08:10:41;;;;;;;6.10;2.83;;;;;;;14.44;60.86;98941.01;1747360;82;21045;-87
2022/05/28 08:13:10;;;;;;;5.58;1.95;;;;;;;14.57;62.35;98948.20;1747942;82;21113;-87
2022/05/28 08:15:39;;;;;;;6.08;2.15;;;;;;;14.64;60.47;98949.56;1747816;82;21541;-83
2022/05/28 08:18:06;;;;;;;4.20;1.75;;;;;;;14.64;60.87;98972.06;1747403;82;21469;-85
2022/05/28 08:23:18;;;;;;;6.08;2.17;;;;;;;14.73;60.59;98946.38;1747329;81;21051;-82
2022/05/28 08:25:46;;;;;;;5.20;1.98;;;;;;;14.88;59.93;98943.27;1747680;82;21109;-84
2022/05/28 08:28:14;;;;;;;5.12;1.87;;;;;;;14.96;60.51;98945.42;1747317;82;20991;-82
2022/05/28 08:30:41;;;;;;;3.65;1.80;;;;;;;14.99;59.85;98946.08;1747543;82;21538;-83
2022/05/28 08:33:09;;;;;;;6.05;2.35;;;;;;;15.02;59.04;98959.63;1747622;82;21569;-84
2022/05/28 08:35:37;;;;;;;4.08;2.05;;;;;;;15.02;58.88;98950.34;1747307;82;20987;-83
2022/05/28 08:38:07;;;;;;;5.40;2.00;;;;;;;15.03;59.23;98948.09;1747110;82;21072;-86
2022/05/28 08:40:54;;;;;;;3.25;1.60;;;;;;;15.14;60.21;98956.20;1747154;82;21137;-84
2022/05/28 08:43:21;;;;;;;3.42;1.67;;;;;;;15.28;55.76;98946.08;1747719;82;22200;-84
2022/05/28 08:45:49;;;;;;;8.68;1.98;;;;;;;15.35;56.94;98949.20;1747386;82;21105;-84
2022/05/28 08:48:22;;;;;;;2.45;1.60;;;;;;;15.41;57.45;98945.65;1734805;82;39171;-84
2022/05/28 08:51:02;;;;;;;2.55;1.65;;;;;;;15.52;56.46;98950.28;1747272;82;21272;-83
2022/05/28 08:53:34;;;;;;;6.30;1.92;;;;;;;15.59;53.53;98948.94;1747398;82;21078;-82
2022/05/28 08:56:00;;;;;;;2.35;1.90;;;;;;;15.62;52.15;98953.20;1747207;82;21003;-85
2022/05/28 08:58:28;;;;;;;7.90;1.67;;;;;;;15.63;51.31;98947.41;1747521;82;21055;-83
2022/05/28 09:01:00;;;;;;;6.83;1.90;;;;;;;15.65;52.04;98941.53;1744540;81;21057;-83
2022/05/28 09:03:54;;;;;;;7.67;2.25;;;;;;;15.71;53.93;98927.88;1752317;81;21104;-83
2022/05/28 09:06:34;;;;;;;1.98;1.17;;;;;;;15.86;53.69;98934.86;1735466;82;21491;-82
2022/05/28 09:09:01;;;;;;;3.58;1.37;;;;;;;16.01;52.22;98944.94;1735483;82;21097;-83
2022/05/28 09:11:51;;;;;;;2.95;1.60;;;;;;;16.03;51.47;98940.38;1710770;82;21147;-83
2022/05/28 09:14:31;;;;;;;3.20;1.70;;;;;;;16.05;52.36;98937.62;1735900;82;21105;-83
2022/05/28 09:17:10;;;;;;;8.73;1.55;;;;;;;16.11;51.76;98935.90;1735548;82;21092;-84
2022/05/28 09:19:41;;;;;;;3.83;1.27;;;;;;;16.12;50.57;98940.23;1712289;82;20996;-82
2022/05/28 09:22:08;;;;;;;5.45;1.52;;;;;;;16.13;50.28;98932.66;1735593;82;21054;-83
2022/05/28 09:24:34;;;;;;;4.67;1.80;;;;;;;16.16;50.23;98939.94;1735676;82;21046;-81
2022/05/28 09:27:36;;;;;;;5.15;1.60;;;;;;;16.15;48.73;98959.48;1735658;82;21105;-82
2022/05/28 09:30:21;;;;;;;3.00;1.42;;;;;;;16.12;47.68;98934.92;1734905;82;21205;-80
2022/05/28 09:32:58;;;;;;;3.62;1.40;;;;;;;16.17;47.77;98959.36;1736051;82;21037;-80
2022/05/28 09:35:52;;;;;;;3.98;1.62;;;;;;;16.23;47.89;98953.65;1734055;82;21083;-82
2022/05/28 09:38:44;;;;;;;3.55;1.30;;;;;;;16.28;49.58;98934.28;1735676;82;21046;-84
2022/05/28 09:41:40;;;;;;;3.15;1.42;;;;;;;16.36;48.29;98936.42;1735901;82;22999;-83
2022/05/28 09:44:40;;;;;;;5.62;2.05;;;;;;;16.45;48.21;98930.97;1735792;82;21365;-84
2022/05/28 09:47:09;;;;;;;4.37;1.20;;;;;;;16.52;47.69;98932.23;1735796;82;21070;-82
2022/05/28 09:49:50;;;;;;;3.25;1.85;;;;;;;16.53;46.18;98937.93;1734943;82;21114;-84
2022/05/28 09:52:31;;;;;;;2.75;1.30;;;;;;;16.51;47.07;98925.24;1735922;82;21055;-81
2022/05/28 09:55:19;;;;;;;6.03;1.40;;;;;;;16.59;47.28;98932.17;1735813;82;21606;-82
2022/05/28 09:57:55;;;;;;;3.58;1.40;;;;;;;16.67;46.89;98928.52;1735592;82;21145;-81
2022/05/28 10:00:22;;;;;;;4.40;1.52;;;;;;;16.62;44.69;98926.66;1735004;82;21541;-81
2022/05/28 10:05:51;;;;;;;2.50;2.15;;;;;;;16.67;44.68;98935.16;1735635;82;21028;-81
2022/05/28 10:08:17;;;;;;;5.90;1.35;;;;;;;16.65;44.34;98916.31;1735911;82;20991;-83
2022/05/28 10:10:54;;;;;;;4.85;1.57;;;;;;;16.66;46.08;98918.00;1735590;82;21448;-83
2022/05/28 10:13:24;;;;;;;5.45;1.62;;;;;;;16.76;46.27;98921.74;1735733;82;22251;-83
2022/05/28 10:15:57;;;;;;;3.05;1.52;;;;;;;16.87;42.40;98925.84;1735607;82;21047;-80
2022/05/28 10:18:31;;;;;;;9.80;1.80;;;;;;;16.91;42.76;98921.16;1735905;82;21039;-81
2022/05/28 10:21:01;;;;;;;4.65;2.47;;;;;;;16.90;44.57;98917.66;1711387;82;21521;-80
2022/05/28 10:23:28;;;;;;;5.45;1.90;;;;;;;17.03;44.01;98928.28;1735581;82;22263;-82
2022/05/28 10:25:54;;;;;;;3.87;1.25;;;;;;;17.13;44.17;98919.64;1735460;82;20980;-82
2022/05/28 10:28:30;;;;;;;5.08;1.25;;;;;;;17.14;42.17;98917.36;1735398;82;20996;-82
2022/05/28 10:30:57;;;;;;;7.25;1.60;;;;;;;17.08;42.83;98915.52;1735956;82;21138;-80
2022/05/28 10:33:28;;;;;;;7.05;1.30;;;;;;;17.07;43.40;98911.14;1735649;82;21108;-83
2022/05/28 10:36:10;;;;;;;3.58;1.17;;;;;;;17.08;42.29;98899.56;1735965;82;21618;-82
2022/05/28 10:38:39;;;;;;;4.47;1.30;;;;;;;17.18;42.62;98908.20;1735559;82;21046;-81
2022/05/28 10:41:26;;;;;;;5.00;1.42;;;;;;;17.22;43.30;98916.34;1735868;82;21008;-80
2022/05/28 10:43:53;;;;;;;2.15;1.40;;;;;;;17.15;43.50;98908.44;1735448;82;21106;-80
2022/05/28 10:46:55;;;;;;;6.53;1.32;;;;;;;17.18;43.07;98932.13;1735782;82;21039;-80
2022/05/28 10:49:40;;;;;;;5.00;2.27;;;;;;;17.28;42.90;98910.56;1735622;82;21623;-82
2022/05/28 10:52:23;;;;;;;3.35;1.40;;;;;;;17.45;43.43;98903.56;1735822;82;20996;-81
2022/05/28 10:55:12;;;;;;;6.20;1.50;;;;;;;17.64;43.16;98899.55;1735741;82;21035;-81
2022/05/28 10:58:16;;;;;;;1.35;1.00;;;;;;;17.63;42.47;98892.52;1737579;82;21012;-82
2022/05/28 11:01:14;;;;;;;6.90;1.42;;;;;;;17.56;41.80;98887.29;1681072;85;21592;-80
2022/05/28 11:03:52;;;;;;;2.00;1.30;;;;;;;17.63;41.73;98891.19;1718179;83;21888;-81
2022/05/28 11:06:48;;;;;;;6.47;1.52;;;;;;;17.69;41.44;98896.56;1706408;82;21110;-80
2022/05/28 11:09:56;;;;;;;5.42;1.20;;;;;;;17.69;41.50;98874.78;1686482;85;21061;-80
2022/05/28 11:13:00;;;;;;;7.28;2.90;;;;;;;17.81;40.68;98888.49;1686536;84;21478;-80
2022/05/28 11:15:44;;;;;;;6.22;2.10;;;;;;;17.73;42.09;98888.20;1686966;85;21148;-83
2022/05/28 11:18:40;;;;;;;2.58;1.85;;;;;;;17.48;41.75;98889.17;1686820;85;21541;-83
2022/05/28 11:21:57;;;;;;;3.20;2.02;;;;;;;17.25;42.47;98894.36;1686491;84;21070;-82
2022/05/28 11:24:52;;;;;;;3.42;2.00;;;;;;;17.29;44.14;98885.68;1686724;84;20974;-81
2022/05/28 11:27:51;;;;;;;1.77;1.10;;;;;;;17.45;42.09;98906.22;1686849;85;21208;-81
2022/05/28 11:30:21;;;;;;;4.12;1.00;;;;;;;17.56;41.70;98909.90;1686923;85;21081;-81
2022/05/28 11:33:13;;;;;;;2.37;1.10;;;;;;;17.69;42.08;98881.44;1686640;85;22406;-83
2022/05/28 11:35:53;;;;;;;3.20;1.85;;;;;;;17.77;41.80;98872.86;1686872;85;21106;-81
2022/05/28 11:38:42;;;;;;;2.50;1.30;;;;;;;17.86;40.06;98893.48;1686445;84;21100;-81
2022/05/28 11:41:22;;;;;;;3.80;1.20;;;;;;;17.92;38.56;98881.09;1686590;85;21093;-82
2022/05/28 11:44:15;;;;;;;2.20;1.35;;;;;;;17.95;37.67;98894.14;1686477;85;21089;-82
2022/05/28 11:46:56;;;;;;;3.80;1.30;;;;;;;17.94;39.09;98874.32;1686747;85;21808;-82
2022/05/28 11:52:59;;;;;;;3.05;1.12;;;;;;;18.31;36.85;98871.02;1686656;85;21348;-83
2022/05/28 11:55:28;;;;;;;2.75;1.07;;;;;;;18.26;37.00;98882.52;1686473;85;21118;-82
2022/05/28 11:58:01;;;;;;;8.98;1.52;;;;;;;18.06;37.65;98889.36;1686668;85;21414;-81
2022/05/28 12:00:30;;;;;;;2.80;1.45;;;;;;;17.91;38.48;98892.69;1686743;85;21139;-82
2022/05/28 12:03:10;;;;;;;2.35;1.37;;;;;;;17.71;39.07;98892.80;1686561;85;21049;-80
2022/05/28 12:05:48;;;;;;;7.17;1.75;;;;;;;17.59;39.32;98894.56;1686610;83;21080;-81
2022/05/28 12:08:26;;;;;;;7.75;2.15;;;;;;;17.53;40.26;98894.16;1686604;84;21066;-82
2022/05/28 12:11:09;;;;;;;1.20;1.10;;;;;;;17.52;39.00;98891.16;1686540;85;21615;-83